Catàleg de serveis del Meteocat
Campanya meteocatpedra

Dades de l'estació automàtica Cassà de la Selva

?
?
Resum diari 22:30 TU
Dades diàries de l'estació meteorològica
Temperatura mitjana 8.9 °C
Temperatura màxima 13.9 °C 13:28 TU
Temperatura mínima 2.2 °C 0:58 TU
Humitat relativa mitjana 78%
Precipitació acumulada 0.0 mm
Ratxa màxima del vent (2 m) 26.6 km/h - 24º 11:09 TU
Irradiació solar global 5.4 MJ/m2

El tram horari està expressat en Temps Universal (TU). Cal sumar una hora en horari d'hivern i dues en horari d'estiu per passar a l'hora oficial.

Cassà de la Selva

Metadades estació meteorol´gica
Municipi Cassà de la Selva
Comarca Gironès
Altitud 171 m
Data alta 08.03.1993
Estat actual Operativa
Dades de període
Període
TU
TM
°C
TX
°C
TN
°C
HRM
%
PPT
mm
VVM (2 m)
km/h
DVM (2 m)
graus
VVX (2 m)
km/h
RS
W/m2
00:00 - 00:30 2.9 3.0 2.5 97 0.0 0.4 70 2.2 0
00:30 - 01:00 2.4 2.5 2.2 97 0.0 0.4 57 2.2 0
01:00 - 01:30 2.4 2.8 2.3 98 0.0 0.4 58 3.2 0
01:30 - 02:00 3.1 3.5 2.9 98 0.0 0.4 55 2.5 0
02:00 - 02:30 3.9 4.3 3.5 98 0.0 0.4 58 2.9 0
02:30 - 03:00 4.4 4.7 4.1 98 0.0 0.4 215 2.5 0
03:00 - 03:30 4.9 5.0 4.7 98 0.0 0.0 0 0.0 0
03:30 - 04:00 6.1 9.6 4.8 91 0.0 1.8 61 12.2 0
04:00 - 04:30 9.8 10.0 9.6 69 0.0 5.0 48 14.0 0
04:30 - 05:00 9.6 9.7 9.4 71 0.0 4.3 50 13.0 0
05:00 - 05:30 9.5 9.6 9.2 73 0.0 5.8 53 18.0 0
05:30 - 06:00 9.0 9.2 8.8 74 0.0 5.8 53 19.8 0
06:00 - 06:30 8.9 9.0 8.8 73 0.0 6.5 53 20.2 0
06:30 - 07:00 8.9 9.2 8.9 73 0.0 5.4 55 24.1 12
07:00 - 07:30 9.1 9.2 9.0 73 0.0 4.3 51 16.6 42
07:30 - 08:00 9.4 9.5 9.2 71 0.0 5.4 51 23.0 84
08:00 - 08:30 9.7 10.0 9.5 70 0.0 4.7 53 15.5 134
08:30 - 09:00 10.1 10.2 10.0 67 0.0 5.0 51 19.1 137
09:00 - 09:30 10.2 10.3 10.1 67 0.0 5.8 49 25.9 142
09:30 - 10:00 10.3 10.3 10.2 67 0.0 7.2 51 19.4 112
10:00 - 10:30 10.3 10.5 10.2 68 0.0 5.8 52 20.5 116
10:30 - 11:00 10.7 11.2 10.5 65 0.0 4.7 49 16.6 203
11:00 - 11:30 11.6 12.1 11.2 63 0.0 6.1 45 26.6 345
11:30 - 12:00 12.2 12.6 11.9 63 0.0 4.7 45 16.9 329
12:00 - 12:30 12.2 12.9 12.0 62 0.0 5.4 47 21.6 271
12:30 - 13:00 12.6 13.1 12.2 63 0.0 3.6 66 13.3 251
13:00 - 13:30 13.2 13.9 12.8 62 0.0 2.9 43 10.8 337
13:30 - 14:00 12.8 13.6 12.5 62 0.0 2.5 44 12.6 157
14:00 - 14:30 13.1 13.8 12.6 63 0.0 3.2 36 10.1 173
14:30 - 15:00 12.5 12.7 12.4 65 0.0 2.9 46 8.6 88
15:00 - 15:30 12.2 12.7 11.5 64 0.0 4.0 42 14.0 61
15:30 - 16:00 11.4 11.4 11.2 66 0.0 5.4 45 15.5 33
16:00 - 16:30 11.2 11.3 10.8 64 0.0 5.0 61 16.9 5
16:30 - 17:00 10.4 10.8 10.0 68 0.0 0.7 91 5.8 0
17:00 - 17:30 10.2 10.4 9.9 71 0.0 0.4 79 3.6 0
17:30 - 18:00 10.0 10.3 9.9 74 0.0 0.4 90 4.3 0
18:00 - 18:30 9.7 10.2 9.1 77 0.0 1.1 84 4.0 0
18:30 - 19:00 9.0 9.8 8.1 82 0.0 2.2 87 7.2 0
19:00 - 19:30 7.8 8.1 7.6 89 0.0 0.7 78 2.5 0
19:30 - 20:00 8.4 8.8 8.1 89 0.0 0.4 62 2.2 0
20:00 - 20:30 8.9 8.9 8.8 89 0.0 0.7 56 3.6 0
20:30 - 21:00 8.2 8.9 7.6 91 0.0 0.7 63 4.7 0
21:00 - 21:30 7.2 7.6 6.9 94 0.0 1.4 81 4.0 0
21:30 - 22:00 6.6 7.1 6.1 95 0.0 0.4 76 4.0 0
22:00 - 22:30 5.7 6.1 5.4 97 0.0 0.4 70 2.2 0
22:30 - 23:00 5.4 5.6 5.3 97 0.0 0.4 62 2.5 0

Les dades en taronja només han passat un control de qualitat automàtic. Resta pendent la seva validació definitiva.